Time;durP1;ratioP1;P1;durP2;ratioP2;P2;SDS_P1;SDS_P2;PMS_P1;PMS_P2;Temp;Humidity;BMP_temperature;BMP_pressure;BME280_temperature;BME280_humidity;BME280_pressure;Samples;Min_cycle;Max_cycle;Signal;HPM_P1;HPM_P2
2022/10/24 06:41:03;;;;;;;;;;;;;;;;;;5069209;28;13315;-78
2022/10/24 06:43:28;;;;;;;;;;;;;;;;;;5068478;28;7521;-79
2022/10/24 06:45:54;;;;;;;;;;;;;;;;;;5066615;28;7548;-75
2022/10/24 06:48:19;;;;;;;;;;;;;;;;;;5067585;28;7536;-74
2022/10/24 06:50:44;;;;;;;;;;;;;;;;;;5067381;28;7537;-73
2022/10/24 06:53:09;;;;;;;;;;;;;;;;;;5065920;28;7544;-73
2022/10/24 06:55:34;;;;;;;;;;;;;;;;;;5066432;28;7582;-73
2022/10/24 06:57:59;;;;;;;;;;;;;;;;;;5067553;28;7529;-74
2022/10/24 07:00:25;;;;;;;;;;;;;;;;;;5067022;28;7549;-74
2022/10/24 07:02:50;;;;;;;;;;;;;;;;;;5066198;28;7543;-73
2022/10/24 07:05:15;;;;;;;;;;;;;;;;;;5067770;28;7529;-73
2022/10/24 07:07:40;;;;;;;;;;;;;;;;;;5066052;28;7508;-74
2022/10/24 07:10:05;;;;;;;;;;;;;;;;;;5067502;28;7517;-73
2022/10/24 07:12:30;;;;;;;;;;;;;;;;;;5066221;28;7522;-73
2022/10/24 07:14:56;;;;;;;;;;;;;;;;;;5067271;28;7525;-73
2022/10/24 07:17:21;;;;;;;;;;;;;;;;;;5067256;28;7517;-73
2022/10/24 07:19:46;;;;;;;;;;;;;;;;;;5067223;28;7524;-74
2022/10/24 07:22:11;;;;;;;;;;;;;;;;;;5062474;28;7521;-73
2022/10/24 07:24:36;;;;;;;;;;;;;;;;;;5067065;28;7623;-73
2022/10/24 07:27:01;;;;;;;;;;;;;;;;;;5067171;28;7532;-73
2022/10/24 07:29:26;;;;;;;;;;;;;;;;;;5067303;28;7536;-73
2022/10/24 07:31:51;;;;;;;;;;;;;;;;;;5065457;28;7513;-73
2022/10/24 07:34:17;;;;;;;;;;;;;;;;;;5066364;28;7517;-74
2022/10/24 07:36:42;;;;;;;;;;;;;;;;;;5066119;28;7524;-74
2022/10/24 07:39:07;;;;;;;;;;;;;;;;;;5065187;28;7540;-73
2022/10/24 07:41:32;;;;;;;;;;;;;;;;;;5063955;28;7521;-74
2022/10/24 07:43:57;;;;;;;;;;;;;;;;;;5065445;28;7520;-74
2022/10/24 07:46:22;;;;;;;;;;;;;;;;;;5065103;28;7632;-75
2022/10/24 07:48:47;;;;;;;;;;;;;;;;;;5065121;28;7521;-75
2022/10/24 07:51:13;;;;;;;;;;;;;;;;;;5058018;28;7529;-74
2022/10/24 07:53:38;;;;;;;;;;;;;;;;;;5051985;28;7531;-74
2022/10/24 07:56:07;;;;;;;;;;;;;;;;;;5050426;28;7556;-74
2022/10/24 07:58:32;;;;;;;;;;;;;;;;;;5051891;28;7623;-74
2022/10/24 08:00:57;;;;;;;;;;;;;;;;;;5052714;28;7635;-74
2022/10/24 08:03:22;;;;;;;;;;;;;;;;;;5053525;28;7528;-75
2022/10/24 08:05:47;;;;;;;;;;;;;;;;;;5053090;28;7517;-75
2022/10/24 08:08:12;;;;;;;;;;;;;;;;;;5051810;28;7615;-69
2022/10/24 08:10:38;;;;;;;;;;;;;;;;;;5052844;28;7524;-70
2022/10/24 08:13:03;;;;;;;;;;;;;;;;;;5052998;28;7533;-69
2022/10/24 08:15:28;;;;;;;;;;;;;;;;;;5052738;28;7525;-67
2022/10/24 08:17:53;;;;;;;;;;;;;;;;;;5051987;28;7525;-69
2022/10/24 08:20:18;;;;;;;;;;;;;;;;;;5049714;28;7619;-68
2022/10/24 08:22:44;;;;;;;;;;;;;;;;;;5049679;28;7536;-69
2022/10/24 08:25:10;;;;;;;;;;;;;;;;;;5049878;28;7525;-70
2022/10/24 08:27:35;;;;;;;;;;;;;;;;;;5049663;28;7525;-72
2022/10/24 08:30:00;;;;;;;;;;;;;;;;;;5051270;28;7521;-71
2022/10/24 08:32:25;;;;;;;;;;;;;;;;;;5050664;28;7517;-71
2022/10/24 08:34:50;;;;;;;;;;;;;;;;;;5050723;28;7525;-71
2022/10/24 08:37:15;;;;;;;;;;;;;;;;;;5050660;28;7524;-71
2022/10/24 08:39:41;;;;;;;;;;;;;;;;;;5050819;28;7537;-70
2022/10/24 08:42:06;;;;;;;;;;;;;;;;;;5052127;28;7555;-69
2022/10/24 08:44:31;;;;;;;;;;;;;;;;;;5052126;28;7627;-69
2022/10/24 08:46:56;;;;;;;;;;;;;;;;;;5052179;28;7570;-69
2022/10/24 08:49:21;;;;;;;;;;;;;;;;;;5052283;28;7627;-70
2022/10/24 09:14:16;;;;;;;;;26.40;24.40;;;;;;;;5102723;27;13456;-68
2022/10/24 10:41:56;;;;;;;;;;;;;;;;;;5108991;27;13398;-68
2022/10/24 10:59:32;;;;;;;;;;;;;;;;;;5129268;27;13411;-68
2022/10/24 19:51:02;;;;;;;;;30.40;25.60;;;;;;;;5098289;27;13451;-74
2022/10/24 19:53:27;;;;;;;;;24.75;22.50;;;;;;;;5099427;28;14440;-73
2022/10/24 19:55:52;;;;;;;;;22.00;19.50;;;;;;;;5104989;28;11459;-76
2022/10/24 19:58:19;;;;;;;;;22.00;20.50;;;;;;;;5105368;28;8843;-75
2022/10/24 20:00:45;;;;;;;;;24.75;19.00;;;;;;;;5101894;28;8838;-78
2022/10/24 20:03:10;;;;;;;;;23.75;21.75;;;;;;;;5104338;28;11608;-77
2022/10/24 20:05:36;;;;;;;;;25.75;24.50;;;;;;;;5105684;28;10724;-75
2022/10/24 20:08:01;;;;;;;;;21.50;19.75;;;;;;;;5101247;28;9497;-77
2022/10/24 20:10:26;;;;;;;;;24.25;21.25;;;;;;;;5101133;28;8890;-79
2022/10/24 20:12:51;;;;;;;;;30.25;27.00;;;;;;;;5105169;28;8792;-83
2022/10/24 20:15:17;;;;;;;;;26.00;22.25;;;;;;;;5097474;28;8823;-80
2022/10/24 20:17:43;;;;;;;;;18.50;18.50;;;;;;;;5104757;28;8811;-76
2022/10/24 20:20:10;;;;;;;;;24.00;21.50;;;;;;;;5104526;28;10330;-74
2022/10/24 20:22:35;;;;;;;;;24.75;19.00;;;;;;;;5078312;28;8853;-80
2022/10/24 20:25:00;;;;;;;;;24.25;23.25;;;;;;;;5104624;28;10549;-76
2022/10/24 20:27:25;;;;;;;;;29.25;24.25;;;;;;;;5102364;28;8892;-75
2022/10/24 20:29:51;;;;;;;;;28.00;24.50;;;;;;;;5095611;28;8973;-76
2022/10/24 20:32:19;;;;;;;;;23.75;22.75;;;;;;;;5098162;28;8780;-75
2022/10/24 20:34:44;;;;;;;;;25.50;22.25;;;;;;;;5103255;28;8830;-74
2022/10/24 20:37:09;;;;;;;;;27.50;26.25;;;;;;;;5094001;28;11049;-75
2022/10/24 20:39:36;;;;;;;;;24.50;22.75;;;;;;;;5102079;28;8831;-75
2022/10/24 20:42:01;;;;;;;;;25.25;22.00;;;;;;;;5101563;28;8788;-85
2022/10/24 20:44:26;;;;;;;;;23.50;21.50;;;;;;;;5104862;28;10599;-81
2022/10/24 20:46:54;;;;;;;;;24.50;21.75;;;;;;;;5104949;28;8812;-79
2022/10/24 20:49:22;;;;;;;;;22.75;20.50;;;;;;;;5104226;28;8839;-81
2022/10/24 20:51:47;;;;;;;;;29.50;25.00;;;;;;;;5104031;28;10585;-80
2022/10/24 20:54:13;;;;;;;;;26.75;25.50;;;;;;;;5105689;28;10716;-80
2022/10/24 20:56:38;;;;;;;;;19.25;18.25;;;;;;;;5108681;27;8802;-79
2022/10/24 20:59:04;;;;;;;;;24.25;23.25;;;;;;;;5114030;28;8781;-74
2022/10/24 21:01:29;;;;;;;;;22.75;19.25;;;;;;;;5095806;28;9547;-73
2022/10/24 21:03:55;;;;;;;;;24.00;19.50;;;;;;;;5089211;28;8839;-72
2022/10/24 21:06:21;;;;;;;;;22.25;19.00;;;;;;;;5081960;22;8971;-75
2022/10/24 21:08:47;;;;;;;;;23.25;22.75;;;;;;;;5050242;28;9035;-77
2022/10/24 21:11:14;;;;;;;;;25.50;24.75;;;;;;;;5068606;28;10457;-77
2022/10/24 21:13:40;;;;;;;;;23.25;19.25;;;;;;;;5085007;28;8852;-77
2022/10/24 21:16:05;;;;;;;;;27.25;24.50;;;;;;;;5018706;28;10449;-76
2022/10/24 21:18:31;;;;;;;;;26.75;24.75;;;;;;;;4993648;28;9625;-76
2022/10/24 21:20:56;;;;;;;;;24.00;19.00;;;;;;;;5007478;28;8838;-75
2022/10/24 21:23:21;;;;;;;;;24.25;22.00;;;;;;;;5009492;28;8826;-76
2022/10/24 21:25:46;;;;;;;;;27.50;24.75;;;;;;;;5011981;28;9938;-77
2022/10/24 21:28:12;;;;;;;;;26.00;22.50;;;;;;;;5006989;28;8817;-77
2022/10/24 21:30:37;;;;;;;;;21.50;19.00;;;;;;;;5009443;28;9021;-75
2022/10/24 21:33:03;;;;;;;;;22.00;21.25;;;;;;;;5009027;28;8818;-76
2022/10/24 21:35:28;;;;;;;;;23.75;19.00;;;;;;;;5009509;28;8807;-76
2022/10/24 21:37:53;;;;;;;;;19.50;18.25;;;;;;;;5010167;28;11587;-76
2022/10/24 21:40:19;;;;;;;;;28.50;24.50;;;;;;;;5012491;28;8903;-77
2022/10/24 21:42:44;;;;;;;;;21.50;18.50;;;;;;;;5010837;28;8842;-75
2022/10/24 21:45:10;;;;;;;;;27.25;23.00;;;;;;;;5012356;28;8895;-77
2022/10/24 21:47:35;;;;;;;;;19.50;18.00;;;;;;;;5012484;28;9007;-78
2022/10/24 21:50:00;;;;;;;;;23.50;21.25;;;;;;;;5011035;28;8818;-75
2022/10/24 21:52:26;;;;;;;;;25.00;19.00;;;;;;;;5010779;28;8838;-75
2022/10/24 21:54:51;;;;;;;;;25.75;23.50;;;;;;;;5012480;28;8833;-74
2022/10/24 21:57:16;;;;;;;;;20.25;18.75;;;;;;;;5011488;28;8806;-75
2022/10/24 21:59:42;;;;;;;;;23.25;18.00;;;;;;;;5011303;28;8799;-78
2022/10/24 22:02:08;;;;;;;;;26.50;22.75;;;;;;;;5012223;28;8802;-77
2022/10/24 22:04:33;;;;;;;;;20.75;19.75;;;;;;;;5010840;28;8809;-77
2022/10/24 22:06:58;;;;;;;;;22.50;21.25;;;;;;;;5010844;28;8924;-77
2022/10/24 22:09:23;;;;;;;;;27.25;22.00;;;;;;;;5010724;28;8872;-77
2022/10/24 22:11:49;;;;;;;;;22.25;20.00;;;;;;;;5011720;28;8913;-77
2022/10/24 22:14:14;;;;;;;;;23.00;19.00;;;;;;;;5011081;28;8794;-77
2022/10/24 22:16:40;;;;;;;;;26.75;22.25;;;;;;;;5012081;28;8803;-77
2022/10/24 22:19:06;;;;;;;;;21.25;19.50;;;;;;;;5012215;28;8834;-77
2022/10/24 22:21:36;;;;;;;;;19.50;18.50;;;;;;;;5011965;28;9737;-77
2022/10/24 22:24:02;;;;;;;;;22.50;21.00;;;;;;;;5011893;28;8881;-77
2022/10/24 22:26:28;;;;;;;;;25.25;20.75;;;;;;;;5011698;28;10584;-77
2022/10/24 22:28:56;;;;;;;;;23.00;20.25;;;;;;;;5011347;28;10716;-77
2022/10/24 22:31:23;;;;;;;;;23.75;19.75;;;;;;;;5011791;28;8786;-77
2022/10/24 22:33:48;;;;;;;;;17.75;15.00;;;;;;;;5011660;28;10616;-77
2022/10/24 22:36:23;;;;;;;;;20.00;17.75;;;;;;;;5011385;28;10451;-77
2022/10/24 22:38:52;;;;;;;;;28.25;21.00;;;;;;;;5010253;28;9536;-76
2022/10/24 22:41:17;;;;;;;;;24.50;22.00;;;;;;;;5001227;28;10777;-76
2022/10/24 22:43:43;;;;;;;;;23.50;20.25;;;;;;;;4991634;28;10649;-77
2022/10/24 22:46:28;;;;;;;;;19.75;19.75;;;;;;;;5009211;28;9505;-77
2022/10/24 22:49:01;;;;;;;;;22.00;21.00;;;;;;;;5011193;28;8822;-77
2022/10/24 22:51:26;;;;;;;;;27.75;25.00;;;;;;;;5011075;28;10582;-77
2022/10/24 22:53:52;;;;;;;;;26.00;21.50;;;;;;;;5011374;28;10851;-77
2022/10/24 22:56:21;;;;;;;;;21.00;16.25;;;;;;;;5011377;28;9579;-77
2022/10/24 22:58:47;;;;;;;;;23.75;20.50;;;;;;;;5011069;28;8856;-77
2022/10/24 23:01:31;;;;;;;;;23.00;21.00;;;;;;;;5011178;28;10384;-77
2022/10/24 23:03:56;;;;;;;;;20.75;17.50;;;;;;;;5011105;28;10838;-76
2022/10/24 23:06:25;;;;;;;;;18.50;16.50;;;;;;;;5011088;28;10600;-76
2022/10/24 23:08:51;;;;;;;;;17.25;15.50;;;;;;;;5011017;28;8794;-76
2022/10/24 23:11:16;;;;;;;;;19.00;16.75;;;;;;;;5011229;28;10651;-77
2022/10/24 23:13:42;;;;;;;;;24.50;18.25;;;;;;;;5011101;28;9537;-77
2022/10/24 23:16:22;;;;;;;;;17.50;16.75;;;;;;;;5011151;28;8853;-77
2022/10/24 23:18:47;;;;;;;;;17.00;15.75;;;;;;;;5010699;28;8836;-77
2022/10/24 23:21:19;;;;;;;;;18.25;16.00;;;;;;;;5010867;28;10307;-78
2022/10/24 23:23:44;;;;;;;;;16.00;13.50;;;;;;;;5010786;28;8921;-73
2022/10/24 23:26:18;;;;;;;;;15.00;15.00;;;;;;;;5010764;28;10452;-73
2022/10/24 23:28:56;;;;;;;;;22.75;21.00;;;;;;;;5010487;28;8794;-73
2022/10/24 23:31:22;;;;;;;;;20.00;16.25;;;;;;;;5010682;28;10452;-72
2022/10/24 23:33:47;;;;;;;;;15.75;15.75;;;;;;;;5010702;28;10707;-73
2022/10/24 23:36:17;;;;;;;;;18.50;16.00;;;;;;;;5010509;28;8865;-73
2022/10/24 23:38:43;;;;;;;;;22.25;18.50;;;;;;;;5010737;28;8818;-72
2022/10/24 23:41:10;;;;;;;;;16.25;16.25;;;;;;;;5010566;28;10627;-73
2022/10/24 23:43:35;;;;;;;;;20.75;16.75;;;;;;;;5010202;28;8838;-73
2022/10/24 23:46:05;;;;;;;;;17.50;16.00;;;;;;;;5010689;28;10411;-73
2022/10/24 23:48:36;;;;;;;;;18.25;17.00;;;;;;;;5010503;28;8917;-73
2022/10/24 23:51:12;;;;;;;;;20.00;16.00;;;;;;;;5010306;28;10415;-73
2022/10/24 23:53:54;;;;;;;;;19.25;17.25;;;;;;;;5010476;28;10363;-73
2022/10/24 23:56:20;;;;;;;;;21.25;17.50;;;;;;;;5010468;28;10363;-73
2022/10/24 23:58:46;;;;;;;;;21.00;16.00;;;;;;;;5010152;28;10754;-73
